createdAt,value
2023-02-24T00:02:04.711Z,6.01
2023-02-24T00:04:35.710Z,6.01
2023-02-24T00:07:05.897Z,6.00
2023-02-24T00:09:34.945Z,5.98
2023-02-24T00:12:05.666Z,5.97
2023-02-24T00:14:36.107Z,5.95
2023-02-24T00:17:08.469Z,5.94
2023-02-24T00:19:38.521Z,5.92
2023-02-24T00:22:10.311Z,5.91
2023-02-24T00:24:38.913Z,5.92
2023-02-24T00:27:11.365Z,5.90
2023-02-24T00:29:40.581Z,5.87
2023-02-24T00:32:13.281Z,5.84
2023-02-24T00:34:44.172Z,5.79
2023-02-24T00:37:16.002Z,5.77
2023-02-24T00:39:44.484Z,5.72
2023-02-24T00:42:13.147Z,5.69
2023-02-24T00:44:43.503Z,5.68
2023-02-24T00:47:13.025Z,5.68
2023-02-24T00:49:43.342Z,5.67
2023-02-24T00:52:15.959Z,5.60
2023-02-24T00:54:46.169Z,5.61
2023-02-24T00:57:16.247Z,5.63
2023-02-24T00:59:48.069Z,5.60
2023-02-24T01:02:17.862Z,5.60
2023-02-24T01:04:46.648Z,5.59
2023-02-24T01:07:16.759Z,5.59
2023-02-24T01:09:45.726Z,5.57
2023-02-24T01:12:38.011Z,5.62
2023-02-24T01:15:09.557Z,5.57
2023-02-24T01:17:38.857Z,5.53
2023-02-24T01:20:17.363Z,5.52
2023-02-24T01:22:50.755Z,5.53
2023-02-24T01:25:21.007Z,5.50
2023-02-24T01:27:49.972Z,5.50
2023-02-24T01:30:18.767Z,5.51
2023-02-24T01:32:48.645Z,5.45
2023-02-24T01:35:18.222Z,5.46
2023-02-24T01:37:48.242Z,5.48
2023-02-24T01:40:21.904Z,5.47
2023-02-24T01:42:52.372Z,5.47
2023-02-24T01:45:29.061Z,5.49
2023-02-24T01:48:02.496Z,5.50
2023-02-24T01:50:33.207Z,5.51
2023-02-24T01:53:06.845Z,5.52
2023-02-24T01:55:39.682Z,5.55
2023-02-24T01:58:15.803Z,5.58
2023-02-24T02:00:47.980Z,5.59
2023-02-24T02:03:31.306Z,5.59
2023-02-24T02:06:03.271Z,5.60
2023-02-24T02:08:36.807Z,5.64
2023-02-24T02:11:08.658Z,5.62
2023-02-24T02:13:38.602Z,5.56
2023-02-24T02:16:27.027Z,5.54
2023-02-24T02:19:11.543Z,5.58
2023-02-24T02:22:07.786Z,5.55
2023-02-24T02:24:48.685Z,5.54
2023-02-24T02:27:38.891Z,5.53
2023-02-24T02:30:29.167Z,5.55
2023-02-24T02:33:39.781Z,5.57
2023-02-24T02:36:22.618Z,5.59
2023-02-24T02:38:58.708Z,5.54
2023-02-24T02:41:32.157Z,5.57
2023-02-24T02:44:09.061Z,5.58
2023-02-24T02:46:43.939Z,5.65
2023-02-24T02:49:22.164Z,5.60
2023-02-24T02:51:55.175Z,5.59
2023-02-24T02:54:30.111Z,5.58
2023-02-24T02:57:07.136Z,5.56
2023-02-24T02:59:41.784Z,5.55
2023-02-24T03:02:14.875Z,5.54
2023-02-24T03:04:46.815Z,5.55
2023-02-24T03:07:20.300Z,5.61
2023-02-24T03:09:53.232Z,5.59
2023-02-24T03:12:25.261Z,5.60
2023-02-24T03:15:00.497Z,5.60
2023-02-24T03:17:32.368Z,5.54
2023-02-24T03:20:15.525Z,5.54
2023-02-24T03:22:52.290Z,5.51
2023-02-24T03:25:25.832Z,5.49
2023-02-24T03:28:01.413Z,5.49
2023-02-24T03:30:38.248Z,5.48
2023-02-24T03:33:18.795Z,5.45
2023-02-24T03:35:50.083Z,5.42
2023-02-24T03:38:24.434Z,5.40
2023-02-24T03:40:53.835Z,5.39
2023-02-24T03:43:28.148Z,5.37
2023-02-24T03:45:58.040Z,5.34
2023-02-24T03:48:29.486Z,5.35
2023-02-24T03:50:59.760Z,5.39
2023-02-24T03:53:43.852Z,5.37
2023-02-24T03:56:29.012Z,5.33
2023-02-24T03:59:13.140Z,5.27
2023-02-24T04:01:50.220Z,5.30
2023-02-24T04:04:27.947Z,5.33
2023-02-24T04:07:01.051Z,5.36
2023-02-24T04:09:40.987Z,5.38
2023-02-24T04:12:21.157Z,5.39
2023-02-24T04:14:54.518Z,5.36
2023-02-24T04:17:28.088Z,5.39
2023-02-24T04:20:02.905Z,5.40
2023-02-24T04:22:33.213Z,5.37
2023-02-24T04:25:06.521Z,5.33
2023-02-24T04:27:35.818Z,5.33
2023-02-24T04:30:06.442Z,5.31
2023-02-24T04:32:35.097Z,5.33
2023-02-24T04:35:06.887Z,5.35
2023-02-24T04:37:37.680Z,5.38
2023-02-24T04:40:12.600Z,5.39
2023-02-24T04:42:46.722Z,5.46
2023-02-24T04:45:17.140Z,5.45
2023-02-24T04:47:49.686Z,5.47
2023-02-24T04:50:24.131Z,5.46
2023-02-24T04:52:54.465Z,5.49
2023-02-24T04:55:29.635Z,5.51
2023-02-24T04:57:59.296Z,5.49
2023-02-24T05:00:34.082Z,5.49
2023-02-24T05:03:04.591Z,5.47
2023-02-24T05:05:35.077Z,5.49
2023-02-24T05:08:06.700Z,5.50
2023-02-24T05:10:40.402Z,5.55
2023-02-24T05:13:11.277Z,5.57
2023-02-24T05:15:42.518Z,5.61
2023-02-24T05:18:17.384Z,5.58
2023-02-24T05:21:06.038Z,5.58
2023-02-24T05:23:36.411Z,5.54
2023-02-24T05:26:09.766Z,5.52
2023-02-24T05:28:41.049Z,5.52
2023-02-24T05:31:11.853Z,5.53
2023-02-24T05:33:43.053Z,5.56
2023-02-24T05:36:17.752Z,5.58
2023-02-24T05:38:47.809Z,5.62
2023-02-24T05:41:21.053Z,5.66
2023-02-24T05:43:55.664Z,5.70
2023-02-24T05:46:29.498Z,5.79
2023-02-24T05:48:59.522Z,5.76
2023-02-24T05:51:35.500Z,5.77
2023-02-24T05:54:06.862Z,5.77
2023-02-24T05:56:39.916Z,5.80
2023-02-24T05:59:11.024Z,5.82
2023-02-24T06:01:42.153Z,5.84
2023-02-24T06:04:21.141Z,5.84
2023-02-24T06:06:52.899Z,5.85
2023-02-24T06:09:24.547Z,5.89
2023-02-24T06:11:56.836Z,5.88
2023-02-24T06:14:26.469Z,5.87
2023-02-24T06:16:55.092Z,5.88
2023-02-24T06:19:25.821Z,5.89
2023-02-24T06:21:56.422Z,5.88
2023-02-24T06:24:27.405Z,5.85
2023-02-24T06:27:02.728Z,5.86
2023-02-24T06:29:32.345Z,5.85
2023-02-24T06:32:09.029Z,5.84
2023-02-24T06:34:38.345Z,5.85
2023-02-24T06:37:09.034Z,5.84
2023-02-24T06:39:37.867Z,5.86
2023-02-24T06:42:09.122Z,5.87
2023-02-24T06:44:40.803Z,5.88
2023-02-24T06:47:13.266Z,5.89
2023-02-24T06:49:43.003Z,5.88
2023-02-24T06:52:18.785Z,5.93
2023-02-24T06:54:52.953Z,5.91
2023-02-24T06:57:23.758Z,5.90
2023-02-24T06:59:52.532Z,5.92
2023-02-24T07:02:21.376Z,5.91
2023-02-24T07:04:50.686Z,5.91
2023-02-24T07:07:20.147Z,5.92
2023-02-24T07:09:49.056Z,5.91
2023-02-24T07:12:21.238Z,5.91
2023-02-24T07:14:53.540Z,5.92
2023-02-24T07:17:25.009Z,5.92
2023-02-24T07:19:54.758Z,5.91
2023-02-24T07:22:25.435Z,5.93
2023-02-24T07:25:00.829Z,5.96
2023-02-24T07:27:30.518Z,5.98
2023-02-24T07:30:00.652Z,6.01
2023-02-24T07:32:30.760Z,6.04
2023-02-24T07:34:59.878Z,6.04
2023-02-24T07:37:31.981Z,6.04
2023-02-24T07:40:00.489Z,6.08
2023-02-24T07:42:30.772Z,6.11
2023-02-24T07:45:08.423Z,6.18
2023-02-24T07:47:36.877Z,6.19
2023-02-24T07:50:10.996Z,6.23
2023-02-24T07:52:39.361Z,6.24
2023-02-24T07:55:10.445Z,6.26
2023-02-24T07:57:39.262Z,6.26
2023-02-24T08:00:19.445Z,6.30
2023-02-24T08:02:50.703Z,6.31
2023-02-24T08:05:19.456Z,6.36
2023-02-24T08:07:51.307Z,6.41
2023-02-24T08:10:28.437Z,6.43
2023-02-24T08:13:03.431Z,6.46
2023-02-24T08:15:35.284Z,6.50
2023-02-24T08:18:04.067Z,6.53
2023-02-24T08:20:52.561Z,6.60
2023-02-24T08:23:23.653Z,6.63
2023-02-24T08:25:53.865Z,6.69
2023-02-24T08:28:27.176Z,6.69
2023-02-24T08:30:57.553Z,6.73
2023-02-24T08:33:30.509Z,6.76
2023-02-24T08:36:02.408Z,6.78
2023-02-24T08:38:47.882Z,6.83
2023-02-24T08:41:21.673Z,6.84
2023-02-24T08:43:50.967Z,6.88
2023-02-24T08:46:27.174Z,6.90
2023-02-24T08:49:00.989Z,6.92
2023-02-24T08:51:35.114Z,7.03
2023-02-24T08:54:11.550Z,7.00
2023-02-24T08:56:44.138Z,7.01
2023-02-24T08:59:29.622Z,7.02
2023-02-24T09:15:21.095Z,7.15
2023-02-24T09:18:01.729Z,7.18
2023-02-24T09:20:47.414Z,7.20
2023-02-24T09:23:20.547Z,7.20
2023-02-24T09:25:51.342Z,7.23
2023-02-24T09:28:25.191Z,7.22
2023-02-24T09:30:57.567Z,7.22
2023-02-24T09:33:28.601Z,7.25
2023-02-24T09:36:13.297Z,7.26
2023-02-24T09:39:14.923Z,7.29
2023-02-24T09:41:57.838Z,7.31
2023-02-24T09:44:33.567Z,7.31
2023-02-24T09:47:13.853Z,7.36
2023-02-24T09:49:56.674Z,7.34
2023-02-24T09:52:40.010Z,7.36
2023-02-24T09:55:27.052Z,7.38
2023-02-24T09:58:20.961Z,7.42
2023-02-24T10:00:58.533Z,7.43
2023-02-24T10:03:48.364Z,7.43
2023-02-24T10:06:22.797Z,7.46
2023-02-24T10:08:57.686Z,7.43
2023-02-24T10:11:34.266Z,7.47
2023-02-24T10:14:06.820Z,7.50
2023-02-24T10:16:46.607Z,7.52
2023-02-24T10:19:25.768Z,7.60
2023-02-24T10:22:03.449Z,7.77
2023-02-24T10:24:38.956Z,7.97
2023-02-24T10:27:16.974Z,8.17
2023-02-24T10:30:06.051Z,8.36
2023-02-24T10:32:47.359Z,8.36
2023-02-24T10:35:21.183Z,8.41
2023-02-24T10:37:50.730Z,8.40
2023-02-24T10:40:34.167Z,8.43
2023-02-24T10:43:10.975Z,8.45
2023-02-24T10:45:45.698Z,8.54
2023-02-24T10:48:41.043Z,8.59
2023-02-24T10:51:20.535Z,8.64
2023-02-24T10:54:10.486Z,8.64
2023-02-24T10:56:45.128Z,8.61
2023-02-24T10:59:41.617Z,8.75
2023-02-24T11:02:30.200Z,8.91
2023-02-24T11:05:14.121Z,8.93
2023-02-24T11:07:54.248Z,9.14
2023-02-24T11:10:33.037Z,9.51
2023-02-24T11:13:20.605Z,9.66
2023-02-24T11:16:09.963Z,9.52
2023-02-24T11:18:40.918Z,9.41
2023-02-24T11:21:13.059Z,9.41
2023-02-24T11:23:48.746Z,9.80
2023-02-24T11:26:23.224Z,9.68
2023-02-24T11:29:01.378Z,9.65
2023-02-24T11:31:46.443Z,9.55
2023-02-24T11:34:25.199Z,9.42
2023-02-24T11:37:07.435Z,9.41
2023-02-24T11:39:57.016Z,9.49
2023-02-24T11:42:31.991Z,9.52
2023-02-24T11:45:09.491Z,9.53
2023-02-24T11:47:48.230Z,9.45
2023-02-24T11:50:32.665Z,9.42
2023-02-24T11:53:07.626Z,9.33
2023-02-24T11:55:42.745Z,9.20
2023-02-24T11:58:19.516Z,9.20
2023-02-24T12:00:57.239Z,9.32
2023-02-24T12:03:35.741Z,9.35
2023-02-24T12:06:17.278Z,9.46
2023-02-24T12:08:50.929Z,9.45
2023-02-24T12:11:30.681Z,9.45
2023-02-24T12:14:08.817Z,9.41
2023-02-24T12:16:41.942Z,9.43
2023-02-24T12:19:21.012Z,9.42
2023-02-24T12:21:55.111Z,9.48
2023-02-24T12:24:24.600Z,9.53
2023-02-24T12:27:06.745Z,9.54
2023-02-24T12:29:52.666Z,9.66
2023-02-24T12:32:39.052Z,9.66
2023-02-24T12:35:20.687Z,9.61
2023-02-24T12:38:11.497Z,9.55
2023-02-24T12:40:47.970Z,9.62
2023-02-24T12:43:29.533Z,9.66
2023-02-24T12:46:07.385Z,9.67
2023-02-24T12:49:18.156Z,9.76
2023-02-24T12:51:58.869Z,9.71
2023-02-24T12:54:33.175Z,9.69
2023-02-24T12:57:10.641Z,9.68
2023-02-24T12:59:43.344Z,9.71
2023-02-24T13:02:24.776Z,9.75
2023-02-24T13:05:05.293Z,9.77
2023-02-24T13:07:53.480Z,9.67
2023-02-24T13:10:34.959Z,9.60
2023-02-24T13:13:12.241Z,9.66
2023-02-24T13:15:52.020Z,9.68
2023-02-24T13:18:30.255Z,9.75
2023-02-24T13:21:09.219Z,9.95
2023-02-24T13:23:42.221Z,10.26
2023-02-24T13:26:13.062Z,10.19
2023-02-24T13:28:41.621Z,10.46
2023-02-24T13:31:14.103Z,10.75
2023-02-24T13:33:44.446Z,11.31
2023-02-24T13:36:17.673Z,11.24
2023-02-24T13:38:48.971Z,10.70
2023-02-24T13:41:45.208Z,10.26
2023-02-24T13:44:27.209Z,10.00
2023-02-24T13:47:36.580Z,9.77
2023-02-24T13:50:21.093Z,9.78
2023-02-24T13:53:10.015Z,9.75
2023-02-24T13:56:01.640Z,9.74
2023-02-24T13:59:06.514Z,9.81
2023-02-24T14:01:48.585Z,9.83
2023-02-24T14:04:22.467Z,9.78
2023-02-24T14:06:54.931Z,9.80
2023-02-24T14:09:28.446Z,9.82
2023-02-24T14:12:01.875Z,9.90
2023-02-24T14:14:32.187Z,9.85
2023-02-24T14:17:00.688Z,9.92
2023-02-24T14:19:30.675Z,9.96
2023-02-24T14:22:01.072Z,10.05
2023-02-24T14:24:29.977Z,10.05
2023-02-24T14:27:01.248Z,10.01
2023-02-24T14:29:32.393Z,10.02
2023-02-24T14:32:02.330Z,10.07
2023-02-24T14:34:35.040Z,10.02
2023-02-24T14:37:05.901Z,10.00
2023-02-24T14:39:35.859Z,10.01
2023-02-24T14:42:15.104Z,10.11
2023-02-24T14:44:46.559Z,10.21
2023-02-24T14:47:16.594Z,10.37
2023-02-24T14:49:58.668Z,10.43
2023-02-24T14:52:37.668Z,10.38
2023-02-24T14:55:16.049Z,10.39
2023-02-24T14:57:51.427Z,10.34
2023-02-24T15:00:24.562Z,11.47
2023-02-24T15:03:06.361Z,11.10
2023-02-24T15:05:44.785Z,10.71
2023-02-24T15:08:31.390Z,10.58
2023-02-24T15:11:00.464Z,10.38
2023-02-24T15:13:37.860Z,10.19
2023-02-24T15:16:14.986Z,10.09
2023-02-24T15:18:43.805Z,10.05
2023-02-24T15:21:23.484Z,11.16
2023-02-24T15:24:01.501Z,11.19
2023-02-24T15:26:32.923Z,11.36
2023-02-24T15:29:04.099Z,11.35
2023-02-24T15:31:32.967Z,11.28
2023-02-24T15:34:04.362Z,11.68
2023-02-24T15:36:37.476Z,11.40
2023-02-24T15:39:10.537Z,13.37
2023-02-24T15:41:45.962Z,12.78
2023-02-24T15:44:28.688Z,12.01
2023-02-24T15:46:58.137Z,11.98
2023-02-24T15:49:26.892Z,11.99
2023-02-24T15:52:01.695Z,11.73
2023-02-24T15:54:33.194Z,11.81
2023-02-24T15:57:03.409Z,11.57
2023-02-24T15:59:32.099Z,11.55
2023-02-24T16:02:00.708Z,11.47
2023-02-24T16:04:29.395Z,11.24
2023-02-24T16:07:02.046Z,11.40
2023-02-24T16:09:36.774Z,11.89
2023-02-24T16:12:21.763Z,11.58
2023-02-24T16:14:56.238Z,11.36
2023-02-24T16:17:33.098Z,11.20
2023-02-24T16:20:02.859Z,11.18
2023-02-24T16:22:32.968Z,11.13
2023-02-24T16:25:01.515Z,11.07
2023-02-24T16:27:31.931Z,11.07
2023-02-24T16:30:01.866Z,10.79
2023-02-24T16:32:30.934Z,10.68
2023-02-24T16:35:00.463Z,10.59
2023-02-24T16:37:30.926Z,10.48
2023-02-24T16:40:01.789Z,10.36
2023-02-24T16:42:30.394Z,10.30
2023-02-24T16:44:59.014Z,10.15
2023-02-24T16:47:27.636Z,10.07
2023-02-24T16:49:58.088Z,9.96
2023-02-24T16:52:26.629Z,9.85
2023-02-24T16:54:55.228Z,9.77
2023-02-24T16:57:26.144Z,9.84
2023-02-24T16:59:55.762Z,9.77
2023-02-24T17:02:27.090Z,9.80
2023-02-24T17:04:55.561Z,9.75
2023-02-24T17:07:24.396Z,9.74
2023-02-24T17:09:53.737Z,9.74
2023-02-24T17:12:24.840Z,9.70
2023-02-24T17:14:53.512Z,9.81
2023-02-24T17:17:22.106Z,9.86
2023-02-24T17:19:52.298Z,9.81
2023-02-24T17:22:22.339Z,9.76
2023-02-24T17:24:50.976Z,9.67
2023-02-24T17:27:19.649Z,9.61
2023-02-24T17:29:49.705Z,9.61
2023-02-24T17:32:18.548Z,9.60
2023-02-24T17:34:47.461Z,9.52
2023-02-24T17:37:16.026Z,9.41
2023-02-24T17:39:44.538Z,9.31
2023-02-24T17:42:13.148Z,9.22
2023-02-24T17:44:41.768Z,9.22
2023-02-24T17:47:12.927Z,9.13
2023-02-24T17:49:41.600Z,9.05
2023-02-24T17:52:10.310Z,9.06
2023-02-24T17:54:39.275Z,9.04
2023-02-24T17:57:09.494Z,9.02
2023-02-24T17:59:38.375Z,9.03
2023-02-24T18:02:10.509Z,9.01
2023-02-24T18:04:41.854Z,8.92
2023-02-24T18:07:12.160Z,8.87
2023-02-24T18:09:41.081Z,8.89
2023-02-24T18:12:09.936Z,8.81
2023-02-24T18:14:38.417Z,8.78
2023-02-24T18:17:06.959Z,8.75
2023-02-24T18:19:35.404Z,8.63
2023-02-24T18:22:05.389Z,8.57
2023-02-24T18:24:34.917Z,8.52
2023-02-24T18:27:04.493Z,8.43
2023-02-24T18:29:33.642Z,8.38
2023-02-24T18:32:03.737Z,8.32
2023-02-24T18:34:32.416Z,8.22
2023-02-24T18:37:01.199Z,8.15
2023-02-24T18:39:31.414Z,8.09
2023-02-24T18:42:00.298Z,8.05
2023-02-24T18:44:29.630Z,7.98
2023-02-24T18:46:58.532Z,7.93
2023-02-24T18:49:27.359Z,7.92
2023-02-24T18:52:23.032Z,7.89
2023-02-24T18:54:53.567Z,7.82
2023-02-24T18:57:22.186Z,7.77
2023-02-24T18:59:51.431Z,7.72
2023-02-24T19:02:20.194Z,7.66
2023-02-24T19:04:48.899Z,7.61
2023-02-24T19:07:17.559Z,7.56
2023-02-24T19:09:48.964Z,7.53
2023-02-24T19:12:20.878Z,7.55
2023-02-24T19:14:53.071Z,7.49
2023-02-24T19:17:22.178Z,7.46
2023-02-24T19:19:50.950Z,7.42
2023-02-24T19:22:19.805Z,7.35
2023-02-24T19:24:48.391Z,7.32
2023-02-24T19:27:17.155Z,7.35
2023-02-24T19:29:47.212Z,7.30
2023-02-24T19:32:16.093Z,7.30
2023-02-24T19:34:44.550Z,7.23
2023-02-24T19:37:13.581Z,7.20
2023-02-24T19:39:42.393Z,7.15
2023-02-24T19:42:11.216Z,7.11
2023-02-24T19:44:39.712Z,7.09
2023-02-24T19:47:09.769Z,7.06
2023-02-24T19:49:39.093Z,7.01
2023-02-24T19:52:07.748Z,6.95
2023-02-24T19:54:36.878Z,6.89
2023-02-24T19:57:05.591Z,6.83
2023-02-24T19:59:34.406Z,6.83
2023-02-24T20:02:03.037Z,6.81
2023-02-24T20:04:33.304Z,6.76
2023-02-24T20:07:01.972Z,6.73
2023-02-24T20:09:30.396Z,6.69
2023-02-24T20:12:01.240Z,6.67
2023-02-24T20:14:31.268Z,6.62
2023-02-24T20:16:59.963Z,6.63
2023-02-24T20:19:28.708Z,6.62
2023-02-24T20:21:58.763Z,6.61
2023-02-24T20:24:27.679Z,6.58
2023-02-24T20:26:56.603Z,6.55
2023-02-24T20:29:25.288Z,6.52
2023-02-24T20:31:53.956Z,6.52
2023-02-24T20:34:22.767Z,6.49
2023-02-24T20:36:51.381Z,6.47
2023-02-24T20:39:25.309Z,6.49
2023-02-24T20:41:55.314Z,6.44
2023-02-24T20:44:23.896Z,6.44
2023-02-24T20:46:52.468Z,6.41
2023-02-24T20:49:21.582Z,6.36
2023-02-24T20:51:50.342Z,6.34
2023-02-24T20:54:20.532Z,6.32
2023-02-24T20:56:49.452Z,6.28
2023-02-24T20:59:22.229Z,6.24
2023-02-24T21:01:52.364Z,6.22
2023-02-24T21:04:22.804Z,6.21
2023-02-24T21:06:52.289Z,6.19
2023-02-24T21:09:22.975Z,6.16
2023-02-24T21:11:51.657Z,6.12
2023-02-24T21:14:22.349Z,6.10
2023-02-24T21:16:51.451Z,6.08
2023-02-24T21:19:20.472Z,6.05
2023-02-24T21:21:49.528Z,6.06
2023-02-24T21:24:18.296Z,6.04
2023-02-24T21:26:48.817Z,5.97
2023-02-24T21:29:17.814Z,5.96
2023-02-24T21:31:47.381Z,5.95
2023-02-24T21:34:17.030Z,5.95
2023-02-24T21:36:46.338Z,5.93
2023-02-24T21:39:15.663Z,5.93
2023-02-24T21:41:44.405Z,5.91
2023-02-24T21:44:16.504Z,5.88
2023-02-24T21:46:45.787Z,5.86
2023-02-24T21:49:15.151Z,5.83
2023-02-24T21:51:43.932Z,5.82
2023-02-24T21:54:12.916Z,5.80
2023-02-24T21:56:42.429Z,5.77
2023-02-24T21:59:11.759Z,5.75
2023-02-24T22:01:43.860Z,5.71
2023-02-24T22:04:19.375Z,5.71
2023-02-24T22:06:47.898Z,5.70
2023-02-24T22:09:20.129Z,5.71
2023-02-24T22:11:50.852Z,5.69
2023-02-24T22:14:21.468Z,5.68
2023-02-24T22:16:51.633Z,5.65
2023-02-24T22:19:20.782Z,5.67
2023-02-24T22:21:49.443Z,5.63
2023-02-24T22:24:19.673Z,5.59
2023-02-24T22:26:47.990Z,5.60
2023-02-24T22:29:16.486Z,5.60
2023-02-24T22:31:49.067Z,5.57
2023-02-24T22:34:19.609Z,5.56
2023-02-24T22:36:48.200Z,5.55
2023-02-24T22:39:17.843Z,5.53
2023-02-24T22:41:48.524Z,5.52
2023-02-24T22:44:19.577Z,5.47
2023-02-24T22:46:49.489Z,5.45
2023-02-24T22:49:19.586Z,5.38
2023-02-24T22:51:47.921Z,5.37
2023-02-24T22:54:17.046Z,5.35
2023-02-24T22:56:45.778Z,5.34
2023-02-24T22:59:14.836Z,5.27
2023-02-24T23:01:44.431Z,5.27
2023-02-24T23:04:15.751Z,5.25
2023-02-24T23:06:47.886Z,5.22
2023-02-24T23:09:20.235Z,5.22
2023-02-24T23:11:49.249Z,5.18
2023-02-24T23:14:18.510Z,5.17
2023-02-24T23:16:48.689Z,5.14
2023-02-24T23:19:18.951Z,5.16
2023-02-24T23:21:51.737Z,5.20
2023-02-24T23:24:21.876Z,5.20
2023-02-24T23:26:54.162Z,5.22
2023-02-24T23:29:24.477Z,5.08
2023-02-24T23:31:54.380Z,5.04
2023-02-24T23:34:23.224Z,4.92
2023-02-24T23:36:53.314Z,4.90
2023-02-24T23:39:24.140Z,4.85
2023-02-24T23:41:57.488Z,4.84
2023-02-24T23:44:26.857Z,4.93
2023-02-24T23:46:58.458Z,5.03
2023-02-24T23:49:39.147Z,5.05
2023-02-24T23:52:16.086Z,5.09
2023-02-24T23:54:44.802Z,5.12
2023-02-24T23:57:13.551Z,5.12
2023-02-24T23:59:42.644Z,5.10
